Time;durP1;ratioP1;P1;durP2;ratioP2;P2;SDS_P1;SDS_P2;PMS_P1;PMS_P2;Temp;Humidity;BMP_temperature;BMP_pressure;BME280_temperature;BME280_humidity;BME280_pressure;Samples;Min_cycle;Max_cycle;Signal;HPM_P1;HPM_P2
2020/12/29 00:00:37;;;;;;;0.80;0.38;;;3.00;75.90;;;;;;5052809;28;20029;-79
2020/12/29 00:03:03;;;;;;;1.17;0.40;;;3.00;75.60;;;;;;5052907;28;20020;-79
2020/12/29 00:05:28;;;;;;;0.95;0.30;;;3.10;75.00;;;;;;5052845;28;20022;-79
2020/12/29 00:07:54;;;;;;;0.70;0.40;;;3.10;74.80;;;;;;5052839;28;20100;-79
2020/12/29 00:10:23;;;;;;;0.88;0.35;;;3.20;74.20;;;;;;5052744;28;20025;-79
2020/12/29 00:12:50;;;;;;;0.20;0.20;;;3.30;73.60;;;;;;5052676;28;20032;-80
2020/12/29 00:15:16;;;;;;;0.30;0.30;;;3.30;73.40;;;;;;5052613;28;20056;-79
2020/12/29 00:17:42;;;;;;;0.30;0.30;;;3.40;73.30;;;;;;5052678;28;20025;-79
2020/12/29 00:20:08;;;;;;;0.30;0.30;;;3.30;73.80;;;;;;5052812;28;20021;-78
2020/12/29 00:22:34;;;;;;;0.82;0.43;;;3.30;74.50;;;;;;5052962;28;20035;-78
2020/12/29 00:25:00;;;;;;;0.88;0.40;;;3.30;75.00;;;;;;5052982;28;20103;-78
2020/12/29 00:27:26;;;;;;;0.95;0.50;;;3.20;75.10;;;;;;5053029;28;20463;-79
2020/12/29 00:29:52;;;;;;;0.45;0.45;;;3.20;76.10;;;;;;5052827;28;20052;-79
2020/12/29 00:32:19;;;;;;;0.40;0.40;;;3.10;76.70;;;;;;5052840;28;20488;-79
2020/12/29 00:34:48;;;;;;;0.50;0.38;;;3.10;77.00;;;;;;5052895;28;20029;-80
2020/12/29 00:37:14;;;;;;;1.42;0.43;;;3.10;77.20;;;;;;5052827;28;20021;-79
2020/12/29 00:39:41;;;;;;;1.10;0.32;;;3.10;77.00;;;;;;5051686;28;20025;-79
2020/12/29 00:42:07;;;;;;;0.30;0.28;;;3.10;76.30;;;;;;5052674;28;20052;-78
2020/12/29 00:44:33;;;;;;;0.50;0.40;;;3.20;75.50;;;;;;5052830;28;20068;-78
2020/12/29 00:46:59;;;;;;;2.00;0.40;;;3.30;74.60;;;;;;5052828;28;20083;-78
2020/12/29 00:49:24;;;;;;;0.80;0.40;;;3.30;74.30;;;;;;5052746;28;20025;-79
2020/12/29 00:51:52;;;;;;;2.05;0.40;;;3.30;74.20;;;;;;5051416;28;20033;-78
2020/12/29 00:54:18;;;;;;;0.32;0.30;;;3.40;73.70;;;;;;5052603;28;20095;-78
2020/12/29 00:56:44;;;;;;;0.50;0.20;;;3.40;73.80;;;;;;5052555;28;20112;-78
2020/12/29 00:59:09;;;;;;;0.57;0.45;;;3.50;73.10;;;;;;5052588;28;20022;-78
2020/12/29 01:01:35;;;;;;;0.30;0.20;;;3.50;73.00;;;;;;5052564;28;20028;-77
2020/12/29 01:04:01;;;;;;;0.15;0.15;;;3.60;72.50;;;;;;5052674;28;20033;-78
2020/12/29 01:06:28;;;;;;;0.30;0.30;;;3.60;72.70;;;;;;5052427;28;20027;-78
2020/12/29 01:08:54;;;;;;;0.30;0.13;;;3.60;72.60;;;;;;5052352;28;20044;-78
2020/12/29 01:11:19;;;;;;;0.20;0.20;;;3.60;73.10;;;;;;5052544;28;20017;-78
2020/12/29 01:13:46;;;;;;;0.52;0.10;;;3.60;73.70;;;;;;5052151;28;20075;-78
2020/12/29 01:16:11;;;;;;;0.20;0.20;;;3.60;73.90;;;;;;5052651;28;20405;-77
2020/12/29 01:18:37;;;;;;;0.22;0.20;;;3.50;74.50;;;;;;5052381;28;20029;-78
2020/12/29 01:21:04;;;;;;;0.63;0.50;;;3.50;75.30;;;;;;5052468;28;20103;-77
2020/12/29 01:23:29;;;;;;;0.10;0.10;;;3.40;75.40;;;;;;5056134;28;20141;-77
2020/12/29 01:25:55;;;;;;;0.10;0.10;;;3.50;76.20;;;;;;5055897;28;20040;-77
2020/12/29 01:28:20;;;;;;;2.60;0.10;;;3.50;76.10;;;;;;5055884;28;20056;-77
2020/12/29 01:30:46;;;;;;;0.20;0.10;;;3.40;76.80;;;;;;5055916;28;20066;-77
2020/12/29 01:33:12;;;;;;;0.20;0.13;;;3.40;77.10;;;;;;5054325;28;20048;-78
2020/12/29 01:35:37;;;;;;;1.58;0.20;;;3.40;78.40;;;;;;5055511;28;20079;-78
2020/12/29 01:38:06;;;;;;;0.10;0.10;;;3.40;77.40;;;;;;5055619;28;20028;-78
2020/12/29 01:40:33;;;;;;;0.40;0.10;;;3.30;77.80;;;;;;5055610;28;20100;-79
2020/12/29 01:42:59;;;;;;;0.10;0.10;;;3.30;77.10;;;;;;5055545;28;20021;-77
2020/12/29 01:45:25;;;;;;;0.25;0.10;;;3.40;76.60;;;;;;5054273;28;20025;-78
2020/12/29 01:47:52;;;;;;;1.55;0.10;;;3.40;76.50;;;;;;5055502;28;20060;-77
2020/12/29 01:50:22;;;;;;;1.27;0.75;;;3.40;75.80;;;;;;5055454;28;20078;-78
2020/12/29 01:52:56;;;;;;;0.20;0.20;;;3.50;75.50;;;;;;5055346;28;20087;-78
2020/12/29 01:55:21;;;;;;;0.63;0.30;;;3.50;74.90;;;;;;5055269;28;20032;-78
2020/12/29 01:57:47;;;;;;;0.47;0.10;;;3.60;73.90;;;;;;5054030;28;20070;-77
2020/12/29 02:00:13;;;;;;;1.15;0.30;;;3.60;73.90;;;;;;5055415;28;20029;-77
2020/12/29 02:02:40;;;;;;;0.47;0.20;;;3.60;74.10;;;;;;5055196;28;20017;-78
2020/12/29 02:05:06;;;;;;;0.43;0.15;;;3.50;74.90;;;;;;5055243;28;20064;-77
2020/12/29 02:07:33;;;;;;;0.80;0.25;;;3.50;75.40;;;;;;5055635;28;20032;-80
2020/12/29 02:09:59;;;;;;;1.05;0.28;;;3.50;75.80;;;;;;5057189;28;20025;-78
2020/12/29 02:12:29;;;;;;;1.55;0.32;;;3.50;75.60;;;;;;5056789;28;20032;-81
2020/12/29 02:14:57;;;;;;;2.97;0.40;;;3.50;75.50;;;;;;5062421;28;20071;-78
2020/12/29 02:17:23;;;;;;;1.23;0.38;;;3.50;75.70;;;;;;5065781;28;20021;-77
2020/12/29 02:19:49;;;;;;;0.32;0.28;;;3.50;75.40;;;;;;5062749;28;20025;-79
2020/12/29 02:22:19;;;;;;;2.58;0.43;;;3.50;76.40;;;;;;5063458;28;20028;-82
2020/12/29 02:25:06;;;;;;;2.17;0.30;;;3.40;77.70;;;;;;5062938;28;20021;-83
2020/12/29 02:27:42;;;;;;;0.75;0.17;;;3.20;79.70;;;;;;5062819;28;20045;-84
2020/12/29 02:30:07;;;;;;;1.05;0.17;;;3.10;79.90;;;;;;5063493;28;20009;-77
2020/12/29 02:32:33;;;;;;;0.47;0.20;;;3.00;81.10;;;;;;5078646;28;20036;-79
2020/12/29 02:34:58;;;;;;;1.20;0.30;;;3.00;81.50;;;;;;5078062;28;20028;-80
2020/12/29 02:37:24;;;;;;;0.55;0.20;;;3.10;81.40;;;;;;5061498;28;20112;-85
2020/12/29 02:39:52;;;;;;;2.60;0.20;;;3.00;81.30;;;;;;5058284;28;20059;-77
2020/12/29 02:42:19;;;;;;;1.70;0.20;;;3.10;80.30;;;;;;5067890;28;20024;-77
2020/12/29 02:44:45;;;;;;;0.60;0.17;;;3.10;80.80;;;;;;5071152;28;20527;-77
2020/12/29 02:47:10;;;;;;;0.70;0.20;;;3.10;80.20;;;;;;5055653;28;20029;-78
2020/12/29 02:49:36;;;;;;;0.30;0.15;;;3.10;80.30;;;;;;5054672;28;20025;-76
2020/12/29 02:52:03;;;;;;;1.08;0.30;;;3.10;80.10;;;;;;5053122;28;20056;-78
2020/12/29 02:54:28;;;;;;;1.88;0.30;;;3.10;80.90;;;;;;5054361;28;20101;-77
2020/12/29 02:56:55;;;;;;;0.70;0.20;;;3.10;81.50;;;;;;5054165;28;20021;-77
2020/12/29 02:59:21;;;;;;;0.80;0.20;;;3.10;81.00;;;;;;5054272;28;20021;-78
2020/12/29 03:01:47;;;;;;;0.30;0.20;;;3.10;80.40;;;;;;5054122;28;20021;-78
2020/12/29 03:04:12;;;;;;;0.35;0.22;;;3.10;80.40;;;;;;5054269;28;20103;-77
2020/12/29 03:06:38;;;;;;;2.33;1.05;;;3.00;81.30;;;;;;5052773;28;20025;-77
2020/12/29 03:09:04;;;;;;;1.08;0.40;;;2.90;82.10;;;;;;5053986;28;20143;-78
2020/12/29 03:11:31;;;;;;;0.95;0.20;;;2.90;82.20;;;;;;5054108;28;20017;-77
2020/12/29 03:14:00;;;;;;;1.38;0.40;;;2.90;82.20;;;;;;5053669;28;20056;-78
2020/12/29 03:16:26;;;;;;;1.25;0.45;;;2.90;82.00;;;;;;5053931;28;20381;-77
2020/12/29 03:18:52;;;;;;;0.57;0.30;;;3.00;81.00;;;;;;5053775;28;20275;-77
2020/12/29 03:21:18;;;;;;;1.00;0.30;;;3.00;80.60;;;;;;5052536;28;20473;-77
2020/12/29 03:23:44;;;;;;;2.58;0.20;;;3.10;79.70;;;;;;5053693;28;20035;-77
2020/12/29 03:26:09;;;;;;;1.15;0.30;;;3.10;79.70;;;;;;5053639;28;20496;-77
2020/12/29 03:28:36;;;;;;;2.78;0.20;;;3.20;78.70;;;;;;5053666;28;20431;-77
2020/12/29 03:31:02;;;;;;;1.40;0.60;;;3.20;78.50;;;;;;5053673;28;20017;-77
2020/12/29 03:33:28;;;;;;;2.72;1.00;;;3.20;78.60;;;;;;5053648;28;20039;-77
2020/12/29 03:35:54;;;;;;;2.88;0.40;;;3.20;78.60;;;;;;5052123;28;20045;-77
2020/12/29 03:38:20;;;;;;;2.25;0.50;;;3.20;77.90;;;;;;5053558;28;20025;-77
2020/12/29 03:40:46;;;;;;;5.10;1.17;;;3.30;77.60;;;;;;5053367;28;20025;-77
2020/12/29 03:43:14;;;;;;;0.50;0.38;;;3.20;77.50;;;;;;5052167;28;20108;-78
2020/12/29 03:45:44;;;;;;;3.00;0.40;;;3.20;77.10;;;;;;5053040;28;20048;-78
2020/12/29 03:48:10;;;;;;;1.63;0.50;;;3.20;77.10;;;;;;5053508;28;20373;-78
2020/12/29 03:50:39;;;;;;;2.15;0.30;;;3.20;76.90;;;;;;5053239;28;20021;-78
2020/12/29 03:53:05;;;;;;;1.67;0.35;;;3.20;77.10;;;;;;5053252;28;20029;-78
2020/12/29 03:55:32;;;;;;;3.70;0.40;;;3.20;77.50;;;;;;5053254;28;20044;-79
2020/12/29 03:57:58;;;;;;;1.58;0.50;;;3.20;77.70;;;;;;5053217;28;20372;-79
2020/12/29 04:00:24;;;;;;;1.65;0.60;;;3.20;77.50;;;;;;5053252;28;20035;-77
2020/12/29 04:02:49;;;;;;;1.35;0.65;;;3.10;77.80;;;;;;5053175;28;20025;-78
2020/12/29 04:05:15;;;;;;;1.63;0.63;;;3.10;77.80;;;;;;5053132;28;20408;-79
2020/12/29 04:07:41;;;;;;;3.22;0.40;;;3.20;78.10;;;;;;5053030;28;20021;-78
2020/12/29 04:10:06;;;;;;;1.20;0.30;;;3.10;78.70;;;;;;5053276;28;20104;-79
2020/12/29 04:12:32;;;;;;;1.60;0.45;;;3.10;78.50;;;;;;5053182;28;20053;-79
2020/12/29 04:14:58;;;;;;;1.17;0.30;;;3.20;79.20;;;;;;5052730;28;20045;-78
2020/12/29 04:17:24;;;;;;;0.40;0.20;;;3.10;79.50;;;;;;5051824;28;20035;-78
2020/12/29 04:19:49;;;;;;;1.33;0.30;;;3.00;80.10;;;;;;5053483;28;20064;-87
2020/12/29 04:22:16;;;;;;;1.52;0.30;;;2.90;81.50;;;;;;5053288;28;20112;-85
2020/12/29 04:24:42;;;;;;;0.22;0.10;;;2.80;81.90;;;;;;5053360;28;20067;-85
2020/12/29 04:27:07;;;;;;;1.58;0.17;;;2.80;81.70;;;;;;5053312;28;20025;-86
2020/12/29 04:29:33;;;;;;;0.80;0.10;;;2.70;82.70;;;;;;5053374;28;20104;-83
2020/12/29 04:31:58;;;;;;;4.45;0.40;;;2.60;83.20;;;;;;5053316;28;20021;-84
2020/12/29 04:34:24;;;;;;;0.73;0.20;;;2.60;83.80;;;;;;5053192;28;20068;-84
2020/12/29 04:36:56;;;;;;;0.80;0.20;;;2.50;84.30;;;;;;5053456;28;20033;-85
2020/12/29 04:39:22;;;;;;;0.38;0.10;;;2.60;83.60;;;;;;5053245;28;20036;-82
2020/12/29 04:41:51;;;;;;;0.30;0.20;;;2.60;82.90;;;;;;5051916;28;20032;-84
2020/12/29 04:44:21;;;;;;;2.08;0.28;;;2.70;82.50;;;;;;5053382;28;20024;-84
2020/12/29 04:46:47;;;;;;;2.53;0.30;;;2.70;81.80;;;;;;5053073;28;20036;-84
2020/12/29 04:49:13;;;;;;;0.75;0.20;;;2.80;80.80;;;;;;5053294;28;20115;-84
2020/12/29 04:51:40;;;;;;;0.57;0.30;;;2.90;79.70;;;;;;5052945;28;20151;-84
2020/12/29 04:54:07;;;;;;;2.25;0.50;;;3.00;78.90;;;;;;5052827;28;20032;-84
2020/12/29 04:56:34;;;;;;;1.40;0.50;;;3.00;79.00;;;;;;5053611;28;20029;-85
2020/12/29 04:59:01;;;;;;;2.10;0.70;;;3.00;79.30;;;;;;5056992;28;20025;-80
2020/12/29 05:01:31;;;;;;;2.13;0.35;;;3.00;79.10;;;;;;5056844;28;20027;-82
2020/12/29 05:03:57;;;;;;;6.45;0.60;;;3.00;78.40;;;;;;5057005;28;20483;-84
2020/12/29 05:06:24;;;;;;;3.50;0.60;;;3.20;76.80;;;;;;5056782;28;20065;-83
2020/12/29 05:08:51;;;;;;;4.13;0.50;;;3.20;76.30;;;;;;5057006;28;20386;-84
2020/12/29 05:11:18;;;;;;;3.03;0.50;;;3.30;75.40;;;;;;5056898;28;20075;-85
2020/12/29 05:13:45;;;;;;;1.25;0.40;;;3.20;75.70;;;;;;5056522;28;20052;-84
2020/12/29 05:16:11;;;;;;;2.15;0.40;;;3.30;75.10;;;;;;5056836;28;20077;-86
2020/12/29 05:18:37;;;;;;;4.22;0.50;;;3.30;75.00;;;;;;5056628;28;20101;-83
2020/12/29 05:21:03;;;;;;;2.78;0.38;;;3.30;74.70;;;;;;5056599;28;20551;-84
2020/12/29 05:23:29;;;;;;;6.20;0.60;;;3.30;74.40;;;;;;5056477;28;20025;-85
2020/12/29 05:25:56;;;;;;;7.28;0.85;;;3.40;73.50;;;;;;5056412;28;20017;-84
2020/12/29 05:28:25;;;;;;;3.05;0.38;;;3.40;73.70;;;;;;5061143;28;20079;-80
2020/12/29 05:31:04;;;;;;;5.43;0.60;;;3.40;73.80;;;;;;5066765;28;20024;-77
2020/12/29 05:33:30;;;;;;;3.10;0.77;;;3.30;74.50;;;;;;5080177;28;20097;-77
2020/12/29 05:36:00;;;;;;;1.95;0.65;;;3.30;74.40;;;;;;5061216;28;20078;-78
2020/12/29 05:38:26;;;;;;;4.03;1.30;;;3.40;74.10;;;;;;5056850;28;20021;-78
2020/12/29 05:40:51;;;;;;;3.58;1.02;;;3.40;73.90;;;;;;5056085;28;20150;-77
2020/12/29 05:43:28;;;;;;;4.70;0.60;;;3.30;74.10;;;;;;5055929;28;20036;-78
2020/12/29 05:45:56;;;;;;;2.85;0.95;;;3.40;72.80;;;;;;5055767;28;20484;-77
2020/12/29 05:48:23;;;;;;;3.95;0.60;;;3.50;72.00;;;;;;5056019;28;20545;-77
2020/12/29 05:50:48;;;;;;;3.50;0.57;;;3.60;71.20;;;;;;5055601;28;20469;-77
2020/12/29 05:53:18;;;;;;;1.52;0.40;;;3.60;70.60;;;;;;5055765;28;20029;-78
2020/12/29 05:55:45;;;;;;;2.17;0.47;;;3.70;70.30;;;;;;5055416;28;20041;-77
2020/12/29 05:58:11;;;;;;;5.40;0.70;;;3.70;69.80;;;;;;5056843;28;20044;-79
2020/12/29 06:00:41;;;;;;;5.30;0.68;;;3.70;70.00;;;;;;5055808;28;20077;-79
2020/12/29 06:03:08;;;;;;;3.03;0.88;;;3.70;69.80;;;;;;5055442;28;20028;-78
2020/12/29 06:05:36;;;;;;;6.00;0.77;;;3.70;69.90;;;;;;5055271;28;20024;-78
2020/12/29 06:08:04;;;;;;;3.58;0.70;;;3.70;70.10;;;;;;5054971;28;20445;-79
2020/12/29 06:10:32;;;;;;;3.17;0.45;;;3.70;69.80;;;;;;5055116;28;20017;-78
2020/12/29 06:13:02;;;;;;;5.40;0.80;;;3.70;70.20;;;;;;5053997;28;20025;-79
2020/12/29 06:15:36;;;;;;;3.97;0.70;;;3.70;70.60;;;;;;5054979;28;20049;-79
2020/12/29 06:18:05;;;;;;;3.95;1.02;;;3.60;70.50;;;;;;5055083;28;20074;-80
2020/12/29 06:20:44;;;;;;;3.28;0.70;;;3.60;70.10;;;;;;5055111;28;20436;-79
2020/12/29 06:23:13;;;;;;;4.00;0.40;;;3.70;69.80;;;;;;5054942;28;20541;-77
2020/12/29 06:25:43;;;;;;;3.58;0.70;;;3.70;69.60;;;;;;5054943;28;20021;-78
2020/12/29 06:28:18;;;;;;;1.90;0.40;;;3.70;69.60;;;;;;5054962;28;20033;-77
2020/12/29 06:30:44;;;;;;;2.42;0.55;;;3.70;69.60;;;;;;5054826;28;20098;-78
2020/12/29 06:33:17;;;;;;;2.40;0.50;;;3.60;69.90;;;;;;5054582;28;20028;-77
2020/12/29 06:35:45;;;;;;;5.07;0.90;;;3.70;70.10;;;;;;5053231;28;20040;-77
2020/12/29 06:38:18;;;;;;;3.05;0.68;;;3.50;71.20;;;;;;5054461;28;20025;-78
2020/12/29 06:40:46;;;;;;;2.38;0.50;;;3.40;72.00;;;;;;5054241;28;20029;-78
2020/12/29 06:43:12;;;;;;;0.55;0.25;;;3.40;73.10;;;;;;5054391;28;20021;-80
2020/12/29 06:45:38;;;;;;;4.05;0.65;;;3.30;73.90;;;;;;5054433;28;20100;-80
2020/12/29 06:48:30;;;;;;;1.17;0.40;;;3.40;74.20;;;;;;5054503;28;20063;-79
2020/12/29 06:51:09;;;;;;;0.88;0.30;;;3.30;74.60;;;;;;5055021;28;20040;-77
2020/12/29 06:53:35;;;;;;;2.83;0.30;;;3.30;74.60;;;;;;5054382;28;20017;-79
2020/12/29 06:56:01;;;;;;;1.33;0.30;;;3.30;74.90;;;;;;5054170;28;20067;-78
2020/12/29 06:58:34;;;;;;;4.38;0.50;;;3.30;74.10;;;;;;5054184;28;20090;-79
2020/12/29 07:01:28;;;;;;;3.05;1.13;;;3.40;73.40;;;;;;5054611;28;20021;-80
2020/12/29 07:04:05;;;;;;;2.03;0.25;;;3.40;73.30;;;;;;5054410;28;20029;-79
2020/12/29 07:06:34;;;;;;;2.13;0.45;;;3.40;73.00;;;;;;5054628;28;20531;-80
2020/12/29 07:09:15;;;;;;;3.13;0.40;;;3.40;73.80;;;;;;5056930;28;20033;-79
2020/12/29 07:12:06;;;;;;;2.60;0.40;;;3.40;74.00;;;;;;5055871;28;20104;-80
2020/12/29 07:14:36;;;;;;;0.93;0.57;;;3.30;74.40;;;;;;5054959;28;20037;-80
2020/12/29 07:17:06;;;;;;;1.13;0.20;;;3.30;74.90;;;;;;5054518;28;20028;-79
2020/12/29 07:19:36;;;;;;;1.10;0.20;;;3.30;74.50;;;;;;5054030;28;20062;-79
2020/12/29 07:22:08;;;;;;;1.77;0.47;;;3.40;74.00;;;;;;5056812;28;20029;-78
2020/12/29 07:24:36;;;;;;;0.55;0.20;;;3.40;73.80;;;;;;5056541;28;20029;-79
2020/12/29 07:27:03;;;;;;;1.23;0.55;;;3.50;73.80;;;;;;5059817;28;20020;-80
2020/12/29 07:29:28;;;;;;;1.17;0.40;;;3.40;74.10;;;;;;5053782;28;20025;-79
2020/12/29 07:31:59;;;;;;;3.88;0.90;;;3.40;74.20;;;;;;5055423;28;20051;-78
2020/12/29 07:34:29;;;;;;;1.33;0.38;;;3.50;74.40;;;;;;5054276;28;20365;-78
2020/12/29 07:36:56;;;;;;;1.88;0.38;;;3.50;74.00;;;;;;5052877;28;20430;-78
2020/12/29 07:39:22;;;;;;;1.70;0.47;;;3.40;74.20;;;;;;5054618;28;20372;-78
2020/12/29 07:41:47;;;;;;;1.90;0.60;;;3.40;74.40;;;;;;5053448;28;20360;-79
2020/12/29 07:44:13;;;;;;;0.45;0.25;;;3.50;73.80;;;;;;5054588;28;20100;-78
2020/12/29 07:46:38;;;;;;;2.15;0.57;;;3.60;73.10;;;;;;5055473;28;20021;-76
2020/12/29 07:49:04;;;;;;;1.65;0.30;;;3.60;73.10;;;;;;5055255;28;20025;-77
2020/12/29 07:51:30;;;;;;;0.75;0.40;;;3.60;72.90;;;;;;5059960;28;20033;-80
2020/12/29 07:54:04;;;;;;;1.02;0.38;;;3.70;72.40;;;;;;5067895;28;20021;-79
2020/12/29 07:56:30;;;;;;;0.60;0.30;;;3.70;72.50;;;;;;5066099;28;20044;-84
2020/12/29 07:59:09;;;;;;;1.80;0.47;;;3.80;73.20;;;;;;5065739;28;20025;-86
2020/12/29 08:01:51;;;;;;;2.72;0.50;;;4.10;72.20;;;;;;5060960;28;20119;-82
2020/12/29 08:04:33;;;;;;;0.90;0.50;;;4.00;71.10;;;;;;5058839;28;20024;-84
2020/12/29 08:07:06;;;;;;;0.40;0.30;;;4.00;71.00;;;;;;5054212;28;20032;-81
2020/12/29 08:09:45;;;;;;;2.03;0.22;;;4.10;71.10;;;;;;5052348;28;20021;-83
2020/12/29 08:12:13;;;;;;;0.55;0.20;;;4.10;70.70;;;;;;5052108;28;20037;-80
2020/12/29 08:14:40;;;;;;;1.75;0.40;;;4.00;69.70;;;;;;5051486;28;20372;-82
2020/12/29 08:17:06;;;;;;;0.65;0.40;;;4.10;69.50;;;;;;5052148;28;20035;-82
2020/12/29 08:19:32;;;;;;;1.23;0.30;;;4.40;69.10;;;;;;5051636;28;20108;-81
2020/12/29 08:22:02;;;;;;;2.00;0.30;;;4.40;67.80;;;;;;5053138;28;20532;-80
2020/12/29 08:24:29;;;;;;;0.88;0.45;;;4.40;67.70;;;;;;5053040;28;20053;-81
2020/12/29 08:26:56;;;;;;;2.00;0.50;;;4.40;68.10;;;;;;5052875;28;20527;-81
2020/12/29 08:29:22;;;;;;;1.52;0.60;;;4.40;67.80;;;;;;5052065;28;20060;-80
2020/12/29 08:32:01;;;;;;;0.30;0.20;;;4.40;68.30;;;;;;5056127;28;20065;-81
2020/12/29 08:34:27;;;;;;;2.72;0.40;;;4.40;67.70;;;;;;5055607;28;20033;-82
2020/12/29 08:36:59;;;;;;;1.65;0.30;;;4.30;67.80;;;;;;5056191;28;20020;-85
2020/12/29 08:39:45;;;;;;;1.88;0.40;;;4.30;67.70;;;;;;5058614;28;20108;-82
2020/12/29 08:42:12;;;;;;;1.33;0.30;;;4.20;68.60;;;;;;5059331;28;20021;-79
2020/12/29 08:44:43;;;;;;;0.50;0.40;;;4.10;69.00;;;;;;5056982;28;20035;-81
2020/12/29 08:47:13;;;;;;;0.20;0.15;;;4.10;69.00;;;;;;5055933;28;20057;-81
2020/12/29 08:49:39;;;;;;;0.40;0.20;;;4.10;69.00;;;;;;5057214;28;20128;-83
2020/12/29 08:52:05;;;;;;;1.85;0.63;;;4.20;68.40;;;;;;5057148;28;20441;-80
2020/12/29 08:54:36;;;;;;;1.73;0.50;;;4.20;68.00;;;;;;5056312;28;20068;-78
2020/12/29 08:57:05;;;;;;;1.23;0.50;;;4.20;67.90;;;;;;5056627;28;20021;-80
2020/12/29 08:59:36;;;;;;;7.18;1.10;;;4.30;68.00;;;;;;5057432;28;20397;-80
2020/12/29 09:02:01;;;;;;;1.50;0.40;;;4.20;67.90;;;;;;5057006;28;20102;-78
2020/12/29 09:04:30;;;;;;;1.20;0.30;;;4.20;68.10;;;;;;5056523;28;20021;-77
2020/12/29 09:07:10;;;;;;;0.82;0.43;;;4.20;68.30;;;;;;5057588;28;20520;-80
2020/12/29 09:09:51;;;;;;;1.60;0.50;;;4.30;67.70;;;;;;5055901;28;20523;-78
2020/12/29 09:12:18;;;;;;;1.15;0.40;;;4.30;67.40;;;;;;5056632;28;20100;-78
2020/12/29 09:14:54;;;;;;;0.32;0.32;;;4.20;67.70;;;;;;5055952;28;20045;-80
2020/12/29 09:17:20;;;;;;;1.20;0.40;;;4.20;67.60;;;;;;5055384;28;20108;-78
2020/12/29 09:22:54;;;;;;;1.90;0.32;;;4.30;67.60;;;;;;5088191;22;20146;-83
2020/12/29 09:25:24;;;;;;;1.42;0.30;;;4.30;66.90;;;;;;5065334;28;20547;-84
2020/12/29 09:28:05;;;;;;;1.33;0.30;;;4.30;67.10;;;;;;5068939;28;20034;-80
2020/12/29 09:30:31;;;;;;;1.50;0.65;;;4.40;67.30;;;;;;5076746;28;20040;-81
2020/12/29 09:32:56;;;;;;;1.95;0.40;;;4.30;67.10;;;;;;5075829;28;20367;-83
2020/12/29 09:35:28;;;;;;;1.88;0.40;;;4.40;67.00;;;;;;5076402;28;20036;-82
2020/12/29 09:37:56;;;;;;;2.58;0.57;;;4.40;66.90;;;;;;5075908;28;20050;-81
2020/12/29 09:40:22;;;;;;;0.85;0.32;;;4.40;66.60;;;;;;5075858;28;20497;-83
2020/12/29 09:42:48;;;;;;;1.58;0.50;;;4.50;66.40;;;;;;5075040;28;20031;-82
2020/12/29 09:45:21;;;;;;;2.08;0.57;;;4.40;66.70;;;;;;5057658;28;20111;-81
2020/12/29 09:47:47;;;;;;;1.58;0.38;;;4.40;66.80;;;;;;5074074;28;20024;-81
2020/12/29 09:50:13;;;;;;;1.35;0.77;;;4.30;67.10;;;;;;5075353;28;20021;-81
2020/12/29 09:52:39;;;;;;;2.22;1.42;;;4.40;67.30;;;;;;5057317;28;20024;-83
2020/12/29 09:55:05;;;;;;;1.55;0.68;;;4.50;67.10;;;;;;5057198;28;20068;-81
2020/12/29 10:00:07;;;;;;;0.70;0.50;;;4.60;66.70;;;;;;5118506;22;20118;-81
2020/12/29 10:02:33;;;;;;;1.48;0.50;;;4.70;66.50;;;;;;5074183;28;20397;-82
2020/12/29 10:04:59;;;;;;;4.05;1.55;;;4.50;66.70;;;;;;5057112;28;20021;-82
2020/12/29 10:07:24;;;;;;;1.35;0.77;;;4.60;66.80;;;;;;5057265;28;20027;-78
2020/12/29 10:09:52;;;;;;;1.05;0.47;;;4.60;67.50;;;;;;5056860;28;20025;-77
2020/12/29 10:12:18;;;;;;;1.33;0.50;;;4.60;66.60;;;;;;5074338;28;20036;-77
2020/12/29 10:14:44;;;;;;;2.25;0.70;;;4.60;66.70;;;;;;5056365;28;20039;-79
2020/12/29 10:17:12;;;;;;;2.05;0.60;;;4.50;66.80;;;;;;5073318;28;20025;-78
2020/12/29 10:19:38;;;;;;;1.75;0.52;;;4.50;67.10;;;;;;5056229;28;20090;-78
2020/12/29 10:22:03;;;;;;;1.50;0.30;;;4.40;66.90;;;;;;5056454;28;20021;-77
2020/12/29 10:24:29;;;;;;;2.13;0.60;;;4.40;66.70;;;;;;5056021;28;20070;-78
2020/12/29 10:26:56;;;;;;;1.23;0.60;;;4.40;67.20;;;;;;5055848;28;20029;-78
2020/12/29 10:29:24;;;;;;;2.38;0.40;;;4.40;67.00;;;;;;5073000;28;20020;-78
2020/12/29 10:31:49;;;;;;;0.88;0.40;;;4.60;67.00;;;;;;5072868;28;20090;-78
2020/12/29 10:34:16;;;;;;;0.55;0.30;;;4.60;66.20;;;;;;5056337;28;20032;-79
2020/12/29 10:36:43;;;;;;;0.60;0.30;;;4.60;65.70;;;;;;5074391;28;20025;-79
2020/12/29 10:39:12;;;;;;;1.15;0.50;;;4.60;65.90;;;;;;5056216;28;20051;-78
2020/12/29 10:41:43;;;;;;;1.13;0.60;;;4.60;65.40;;;;;;5056373;28;20021;-79
2020/12/29 10:44:10;;;;;;;0.68;0.30;;;4.50;65.40;;;;;;5056492;28;20016;-78
2020/12/29 10:46:37;;;;;;;0.93;0.40;;;4.40;65.80;;;;;;5056082;28;20056;-79
2020/12/29 10:49:08;;;;;;;0.95;0.38;;;4.40;66.00;;;;;;5056499;28;20037;-78
2020/12/29 10:51:34;;;;;;;1.25;0.60;;;4.40;65.70;;;;;;5056467;28;20043;-79
2020/12/29 10:53:59;;;;;;;1.95;0.63;;;4.50;66.30;;;;;;5055137;28;20460;-79
2020/12/29 10:56:25;;;;;;;0.68;0.40;;;4.60;66.00;;;;;;5056267;28;20158;-78
2020/12/29 10:58:52;;;;;;;2.92;0.50;;;4.70;64.90;;;;;;5056049;28;20048;-78
2020/12/29 11:01:23;;;;;;;3.13;0.70;;;4.70;64.50;;;;;;5056256;28;20581;-79
2020/12/29 11:03:50;;;;;;;2.78;0.60;;;4.80;63.90;;;;;;5072623;28;20028;-78
2020/12/29 11:06:23;;;;;;;1.80;0.55;;;4.60;63.90;;;;;;5056297;28;20025;-80
2020/12/29 11:08:51;;;;;;;0.90;0.30;;;4.60;63.80;;;;;;5072899;28;20043;-78
2020/12/29 11:11:19;;;;;;;3.28;0.50;;;4.70;64.00;;;;;;5072943;28;20032;-78
2020/12/29 11:13:46;;;;;;;2.97;1.05;;;4.60;63.40;;;;;;5073834;28;20099;-79
2020/12/29 11:16:18;;;;;;;3.03;0.90;;;4.60;63.50;;;;;;5055611;28;20033;-78
2020/12/29 11:18:48;;;;;;;0.95;0.63;;;4.50;63.30;;;;;;5055754;28;20078;-79
2020/12/29 11:21:16;;;;;;;0.70;0.38;;;4.60;63.60;;;;;;5055527;28;20032;-79
2020/12/29 11:23:42;;;;;;;2.35;0.50;;;4.70;63.40;;;;;;5055741;28;20506;-78
2020/12/29 11:26:15;;;;;;;2.00;0.60;;;4.70;63.20;;;;;;5055909;28;20025;-79
2020/12/29 11:28:41;;;;;;;3.80;0.70;;;4.70;63.30;;;;;;5055638;28;20054;-79
2020/12/29 11:31:12;;;;;;;2.45;0.60;;;4.80;62.10;;;;;;5072880;28;20563;-78
2020/12/29 11:33:39;;;;;;;2.03;0.30;;;5.00;61.60;;;;;;5055330;28;20444;-78
2020/12/29 11:36:05;;;;;;;1.80;0.55;;;5.00;60.60;;;;;;5055359;28;20198;-79
2020/12/29 11:38:31;;;;;;;2.22;0.60;;;5.00;60.80;;;;;;5073111;28;20021;-78
2020/12/29 11:40:58;;;;;;;4.18;0.57;;;4.90;60.30;;;;;;5055067;28;20097;-78
2020/12/29 11:43:25;;;;;;;0.75;0.55;;;4.90;59.90;;;;;;5055324;28;20075;-80
2020/12/29 11:45:52;;;;;;;1.45;0.60;;;4.80;60.00;;;;;;5055424;28;20028;-78
2020/12/29 11:48:19;;;;;;;1.52;0.40;;;4.80;60.20;;;;;;5071929;28;20032;-79
2020/12/29 11:50:47;;;;;;;3.17;0.70;;;4.90;60.50;;;;;;5055109;28;20025;-79
2020/12/29 11:53:13;;;;;;;1.85;0.77;;;4.90;60.30;;;;;;5055456;28;20036;-78
2020/12/29 11:55:40;;;;;;;1.25;0.60;;;4.90;61.00;;;;;;5072830;28;20097;-78
2020/12/29 11:58:06;;;;;;;1.08;0.50;;;4.90;61.30;;;;;;5054792;28;20028;-77
2020/12/29 12:00:33;;;;;;;2.85;0.47;;;4.80;61.50;;;;;;5055875;28;20115;-81
2020/12/29 12:02:59;;;;;;;4.15;0.70;;;4.70;62.00;;;;;;5071819;28;20029;-79
2020/12/29 12:05:25;;;;;;;2.85;0.50;;;4.80;62.50;;;;;;5072689;28;20098;-79
2020/12/29 12:07:50;;;;;;;2.22;0.95;;;4.80;62.90;;;;;;5055034;28;20033;-79
2020/12/29 12:10:16;;;;;;;2.38;1.05;;;4.90;62.40;;;;;;5055428;28;20046;-78
2020/12/29 12:12:48;;;;;;;3.40;0.60;;;4.90;62.20;;;;;;5055093;28;20024;-79
2020/12/29 12:15:14;;;;;;;2.42;0.70;;;5.00;61.50;;;;;;5054853;28;20031;-78
2020/12/29 12:17:41;;;;;;;1.13;0.57;;;5.10;60.70;;;;;;5038436;28;20041;-78
2020/12/29 12:20:07;;;;;;;0.82;0.60;;;5.10;59.80;;;;;;5055122;28;20094;-78
2020/12/29 12:22:34;;;;;;;1.85;0.60;;;5.10;59.70;;;;;;5073138;28;20032;-78
2020/12/29 12:25:00;;;;;;;2.60;0.60;;;5.30;59.40;;;;;;5072080;28;20041;-80
2020/12/29 12:27:25;;;;;;;1.65;0.55;;;5.40;59.00;;;;;;5055254;28;20027;-79
2020/12/29 12:29:53;;;;;;;2.20;0.40;;;5.40;58.50;;;;;;5054694;28;20024;-79
2020/12/29 12:32:20;;;;;;;0.40;0.32;;;5.50;58.50;;;;;;5055184;28;20476;-79
2020/12/29 12:34:52;;;;;;;2.08;0.70;;;5.40;57.90;;;;;;5054771;28;20086;-78
2020/12/29 12:37:18;;;;;;;1.42;0.63;;;5.30;58.40;;;;;;5072710;28;20025;-78
2020/12/29 12:39:44;;;;;;;1.17;0.40;;;5.10;59.00;;;;;;5054483;28;20028;-78
2020/12/29 12:42:10;;;;;;;1.27;0.60;;;5.20;59.40;;;;;;5054449;28;20358;-78
2020/12/29 12:44:37;;;;;;;1.27;0.63;;;5.00;59.40;;;;;;5071159;28;20543;-77
2020/12/29 12:47:07;;;;;;;2.90;1.05;;;4.90;59.40;;;;;;5054074;28;20028;-78
2020/12/29 12:49:32;;;;;;;2.45;0.50;;;4.80;59.80;;;;;;5054814;28;20119;-79
2020/12/29 12:51:58;;;;;;;2.83;0.85;;;4.80;60.10;;;;;;5054196;28;20128;-80
2020/12/29 12:54:26;;;;;;;1.10;0.68;;;4.80;60.10;;;;;;5054499;28;20032;-79
2020/12/29 12:56:53;;;;;;;1.50;0.52;;;4.80;60.00;;;;;;5054204;28;20496;-79
2020/12/29 12:59:19;;;;;;;2.03;0.40;;;4.70;60.10;;;;;;5054536;28;20098;-79
2020/12/29 13:01:44;;;;;;;0.93;0.40;;;4.70;60.10;;;;;;5054376;28;20419;-77
2020/12/29 13:04:10;;;;;;;3.22;0.95;;;4.90;60.60;;;;;;5054097;28;20043;-77
2020/12/29 13:06:36;;;;;;;1.02;0.60;;;6.20;58.50;;;;;;5054273;28;20032;-79